sensor_id;sensor_type;location;lat;lon;timestamp;pressure;altitude;pressure_sealevel;temperature;humidity
76128;BME280;64873;50.102;14.434;2023-04-01T00:01:42;97687.56;;;9.49;70.68
76128;BME280;64873;50.102;14.434;2023-04-01T00:04:08;97686.81;;;9.53;70.72
76128;BME280;64873;50.102;14.434;2023-04-01T00:06:33;97694.13;;;9.63;69.95
76128;BME280;64873;50.102;14.434;2023-04-01T00:08:58;97678.06;;;9.58;69.70
76128;BME280;64873;50.102;14.434;2023-04-01T00:11:24;97679.63;;;9.54;69.93
76128;BME280;64873;50.102;14.434;2023-04-01T00:13:52;97696.28;;;9.66;69.83
76128;BME280;64873;50.102;14.434;2023-04-01T00:16:18;97681.84;;;9.62;69.70
76128;BME280;64873;50.102;14.434;2023-04-01T00:18:43;97692.53;;;9.62;70.07
76128;BME280;64873;50.102;14.434;2023-04-01T00:21:09;97690.88;;;9.61;70.08
76128;BME280;64873;50.102;14.434;2023-04-01T00:23:34;97684.09;;;9.48;69.82
76128;BME280;64873;50.102;14.434;2023-04-01T00:26:01;97692.53;;;9.62;69.78
76128;BME280;64873;50.102;14.434;2023-04-01T00:28:27;97685.88;;;9.65;69.67
76128;BME280;64873;50.102;14.434;2023-04-01T00:30:53;97697.41;;;9.70;69.18
76128;BME280;64873;50.102;14.434;2023-04-01T00:33:18;97695.13;;;9.57;69.69
76128;BME280;64873;50.102;14.434;2023-04-01T00:35:44;97682.28;;;9.54;69.35
76128;BME280;64873;50.102;14.434;2023-04-01T00:38:10;97684.47;;;9.57;69.31
76128;BME280;64873;50.102;14.434;2023-04-01T00:40:44;97684.88;;;9.49;69.60
76128;BME280;64873;50.102;14.434;2023-04-01T00:43:16;97688.94;;;9.51;69.51
76128;BME280;64873;50.102;14.434;2023-04-01T00:45:47;97680.53;;;9.43;69.88
76128;BME280;64873;50.102;14.434;2023-04-01T00:48:28;97684.22;;;9.37;69.89
76128;BME280;64873;50.102;14.434;2023-04-01T00:51:17;97696.81;;;9.41;70.14
76128;BME280;64873;50.102;14.434;2023-04-01T00:53:47;97688.69;;;9.53;70.07
76128;BME280;64873;50.102;14.434;2023-04-01T00:56:24;97684.22;;;9.37;70.30
76128;BME280;64873;50.102;14.434;2023-04-01T00:58:59;97687.44;;;9.39;69.83
76128;BME280;64873;50.102;14.434;2023-04-01T01:01:25;97676.03;;;9.21;70.55
76128;BME280;64873;50.102;14.434;2023-04-01T01:03:51;97679.88;;;9.30;70.63
76128;BME280;64873;50.102;14.434;2023-04-01T01:12:07;97682.84;;;9.12;71.55
76128;BME280;64873;50.102;14.434;2023-04-01T01:14:39;97690.28;;;9.10;71.53
76128;BME280;64873;50.102;14.434;2023-04-01T01:22:34;97680.91;;;9.07;71.51
76128;BME280;64873;50.102;14.434;2023-04-01T01:31:07;97678.59;;;8.94;71.28
76128;BME280;64873;50.102;14.434;2023-04-01T01:36:54;97676.06;;;9.04;71.59
76128;BME280;64873;50.102;14.434;2023-04-01T01:39:26;97682.84;;;9.12;71.63
76128;BME280;64873;50.102;14.434;2023-04-01T01:41:55;97685.50;;;9.12;71.37
76128;BME280;64873;50.102;14.434;2023-04-01T01:44:23;97675.91;;;9.11;70.91
76128;BME280;64873;50.102;14.434;2023-04-01T01:46:51;97680.56;;;9.21;70.71
76128;BME280;64873;50.102;14.434;2023-04-01T01:49:17;97677.47;;;9.29;70.58
76128;BME280;64873;50.102;14.434;2023-04-01T01:51:44;97681.38;;;9.21;70.82
76128;BME280;64873;50.102;14.434;2023-04-01T01:54:14;97665.84;;;9.18;70.88
76128;BME280;64873;50.102;14.434;2023-04-01T01:56:41;97669.03;;;9.15;70.61
76128;BME280;64873;50.102;14.434;2023-04-01T01:59:09;97677.56;;;9.17;71.11
76128;BME280;64873;50.102;14.434;2023-04-01T02:01:41;97682.72;;;9.24;71.51
76128;BME280;64873;50.102;14.434;2023-04-01T02:04:07;97690.97;;;9.22;71.33
76128;BME280;64873;50.102;14.434;2023-04-01T02:06:37;97687.97;;;9.19;72.00
76128;BME280;64873;50.102;14.434;2023-04-01T02:09:06;97684.44;;;9.13;72.59
76128;BME280;64873;50.102;14.434;2023-04-01T02:11:53;97684.91;;;9.27;71.54
76128;BME280;64873;50.102;14.434;2023-04-01T02:14:27;97688.16;;;9.12;72.22
76128;BME280;64873;50.102;14.434;2023-04-01T02:16:59;97678.75;;;9.04;72.56
76128;BME280;64873;50.102;14.434;2023-04-01T02:19:34;97686.47;;;9.06;72.18
76128;BME280;64873;50.102;14.434;2023-04-01T02:22:03;97691.38;;;9.14;72.03
76128;BME280;64873;50.102;14.434;2023-04-01T02:24:31;97690.28;;;9.10;72.25
76128;BME280;64873;50.102;14.434;2023-04-01T02:26:59;97681.56;;;9.15;72.07
76128;BME280;64873;50.102;14.434;2023-04-01T02:29:25;97688.66;;;9.09;72.31
76128;BME280;64873;50.102;14.434;2023-04-01T02:31:51;97676.47;;;8.96;72.81
76128;BME280;64873;50.102;14.434;2023-04-01T02:34:19;97692.41;;;8.91;73.06
76128;BME280;64873;50.102;14.434;2023-04-01T02:36:45;97695.38;;;8.95;72.91
76128;BME280;64873;50.102;14.434;2023-04-01T02:39:12;97699.88;;;9.11;72.87
76128;BME280;64873;50.102;14.434;2023-04-01T02:41:40;97692.47;;;8.96;72.39
76128;BME280;64873;50.102;14.434;2023-04-01T02:44:06;97683.59;;;8.91;72.84
76128;BME280;64873;50.102;14.434;2023-04-01T02:46:32;97696.69;;;8.92;73.39
76128;BME280;64873;50.102;14.434;2023-04-01T02:48:58;97704.19;;;8.95;73.46
76128;BME280;64873;50.102;14.434;2023-04-01T02:51:23;97708.78;;;9.00;73.29
76128;BME280;64873;50.102;14.434;2023-04-01T02:53:48;97708.22;;;8.98;73.14
76128;BME280;64873;50.102;14.434;2023-04-01T02:56:14;97716.16;;;8.93;73.64
76128;BME280;64873;50.102;14.434;2023-04-01T02:58:40;97722.25;;;9.10;72.91
76128;BME280;64873;50.102;14.434;2023-04-01T03:01:05;97717.81;;;8.99;72.54
76128;BME280;64873;50.102;14.434;2023-04-01T03:03:30;97719.91;;;8.97;73.02
76128;BME280;64873;50.102;14.434;2023-04-01T03:05:56;97719.38;;;8.95;73.31
76128;BME280;64873;50.102;14.434;2023-04-01T03:08:23;97719.88;;;8.92;73.56
76128;BME280;64873;50.102;14.434;2023-04-01T03:10:49;97719.38;;;8.95;72.85
76128;BME280;64873;50.102;14.434;2023-04-01T03:13:14;97717.13;;;8.87;73.28
76128;BME280;64873;50.102;14.434;2023-04-01T03:15:40;97715.63;;;8.96;72.90
76128;BME280;64873;50.102;14.434;2023-04-01T03:18:05;97732.28;;;9.03;72.61
76128;BME280;64873;50.102;14.434;2023-04-01T03:20:31;97726.38;;;9.01;72.82
76128;BME280;64873;50.102;14.434;2023-04-01T03:22:56;97714.38;;;8.98;72.16
76128;BME280;64873;50.102;14.434;2023-04-01T03:25:22;97739.34;;;9.14;72.45
76128;BME280;64873;50.102;14.434;2023-04-01T03:27:47;97736.06;;;9.07;72.57
76128;BME280;64873;50.102;14.434;2023-04-01T03:30:13;97731.53;;;9.07;72.14
76128;BME280;64873;50.102;14.434;2023-04-01T03:32:38;97740.06;;;9.26;71.34
76128;BME280;64873;50.102;14.434;2023-04-01T03:35:04;97719.50;;;9.05;71.65
76128;BME280;64873;50.102;14.434;2023-04-01T03:37:30;97736.63;;;9.09;71.78
76128;BME280;64873;50.102;14.434;2023-04-01T03:39:56;97745.16;;;9.28;71.26
76128;BME280;64873;50.102;14.434;2023-04-01T03:42:21;97730.81;;;9.12;71.31
76128;BME280;64873;50.102;14.434;2023-04-01T03:44:46;97733.28;;;9.19;71.73
76128;BME280;64873;50.102;14.434;2023-04-01T03:47:12;97736.22;;;9.17;71.20
76128;BME280;64873;50.102;14.434;2023-04-01T03:49:37;97752.28;;;9.22;71.42
76128;BME280;64873;50.102;14.434;2023-04-01T03:52:03;97748.41;;;9.13;71.56
76128;BME280;64873;50.102;14.434;2023-04-01T03:54:28;97747.41;;;9.19;71.21
76128;BME280;64873;50.102;14.434;2023-04-01T03:56:53;97748.41;;;9.13;71.53
76128;BME280;64873;50.102;14.434;2023-04-01T03:59:20;97748.91;;;9.10;71.48
76128;BME280;64873;50.102;14.434;2023-04-01T04:01:46;97740.31;;;9.08;71.10
76128;BME280;64873;50.102;14.434;2023-04-01T04:04:12;97738.72;;;9.07;71.16
76128;BME280;64873;50.102;14.434;2023-04-01T04:06:38;97751.13;;;9.18;70.91
76128;BME280;64873;50.102;14.434;2023-04-01T04:09:03;97755.66;;;9.18;70.84
76128;BME280;64873;50.102;14.434;2023-04-01T04:11:30;97742.78;;;9.10;70.78
76128;BME280;64873;50.102;14.434;2023-04-01T04:13:56;97752.63;;;9.09;70.43
76128;BME280;64873;50.102;14.434;2023-04-01T04:16:21;97756.28;;;9.25;69.83
76128;BME280;64873;50.102;14.434;2023-04-01T04:18:47;97767.28;;;9.28;70.70
76128;BME280;64873;50.102;14.434;2023-04-01T04:21:13;97768.81;;;9.24;70.55
76128;BME280;64873;50.102;14.434;2023-04-01T04:23:41;97766.16;;;9.24;70.07
76128;BME280;64873;50.102;14.434;2023-04-01T04:26:08;97761.31;;;9.21;70.55
76128;BME280;64873;50.102;14.434;2023-04-01T04:28:34;97769.44;;;9.31;69.54
76128;BME280;64873;50.102;14.434;2023-04-01T04:31:00;97763.28;;;9.09;70.19
76128;BME280;64873;50.102;14.434;2023-04-01T04:33:26;97771.28;;;9.09;70.37
76128;BME280;64873;50.102;14.434;2023-04-01T04:35:55;97768.09;;;9.12;70.31
76128;BME280;64873;50.102;14.434;2023-04-01T04:38:20;97778.69;;;9.07;70.58
76128;BME280;64873;50.102;14.434;2023-04-01T04:40:46;97767.47;;;9.05;70.75
76128;BME280;64873;50.102;14.434;2023-04-01T04:43:13;97762.53;;;8.97;70.80
76128;BME280;64873;50.102;14.434;2023-04-01T04:45:39;97779.75;;;9.06;71.20
76128;BME280;64873;50.102;14.434;2023-04-01T04:48:07;97764.72;;;9.00;70.95
76128;BME280;64873;50.102;14.434;2023-04-01T04:50:33;97771.19;;;9.04;71.02
76128;BME280;64873;50.102;14.434;2023-04-01T04:52:58;97776.44;;;9.16;70.77
76128;BME280;64873;50.102;14.434;2023-04-01T04:55:24;97751.31;;;8.95;70.91
76128;BME280;64873;50.102;14.434;2023-04-01T04:57:49;97778.69;;;9.07;71.37
76128;BME280;64873;50.102;14.434;2023-04-01T05:00:15;97766.25;;;8.96;71.23
76128;BME280;64873;50.102;14.434;2023-04-01T05:02:40;97777.72;;;9.13;71.02
76128;BME280;64873;50.102;14.434;2023-04-01T05:05:06;97777.06;;;9.06;71.10
76128;BME280;64873;50.102;14.434;2023-04-01T05:07:33;97783.75;;;9.25;70.69
76128;BME280;64873;50.102;14.434;2023-04-01T05:09:58;97785.22;;;9.16;71.16
76128;BME280;64873;50.102;14.434;2023-04-01T05:12:24;97786.22;;;9.10;70.92
76128;BME280;64873;50.102;14.434;2023-04-01T05:14:50;97777.31;;;9.04;71.30
76128;BME280;64873;50.102;14.434;2023-04-01T05:17:15;97794.75;;;9.12;70.78
76128;BME280;64873;50.102;14.434;2023-04-01T05:19:40;97787.81;;;9.28;70.25
76128;BME280;64873;50.102;14.434;2023-04-01T05:22:06;97791.03;;;9.30;70.77
76128;BME280;64873;50.102;14.434;2023-04-01T05:24:32;97785.94;;;9.28;70.51
76128;BME280;64873;50.102;14.434;2023-04-01T05:26:58;97790.56;;;9.16;70.47
76128;BME280;64873;50.102;14.434;2023-04-01T05:29:25;97792.66;;;9.14;71.59
76128;BME280;64873;50.102;14.434;2023-04-01T05:31:50;97796.53;;;9.23;70.58
76128;BME280;64873;50.102;14.434;2023-04-01T05:34:16;97794.75;;;9.29;70.30
76128;BME280;64873;50.102;14.434;2023-04-01T05:36:43;97776.66;;;9.14;70.16
76128;BME280;64873;50.102;14.434;2023-04-01T05:39:09;97794.75;;;9.29;69.99
76128;BME280;64873;50.102;14.434;2023-04-01T05:41:35;97791.19;;;9.23;70.07
76128;BME280;64873;50.102;14.434;2023-04-01T05:44:01;97794.56;;;9.35;70.37
76128;BME280;64873;50.102;14.434;2023-04-01T05:46:26;97795.53;;;9.29;70.68
76128;BME280;64873;50.102;14.434;2023-04-01T05:48:52;97804.91;;;9.32;70.42
76128;BME280;64873;50.102;14.434;2023-04-01T05:51:17;97793.03;;;9.40;70.19
76128;BME280;64873;50.102;14.434;2023-04-01T05:53:43;97808.25;;;9.61;69.62
76128;BME280;64873;50.102;14.434;2023-04-01T05:56:08;97799.25;;;9.45;69.92
76128;BME280;64873;50.102;14.434;2023-04-01T05:58:37;97800.69;;;9.36;70.70
76128;BME280;64873;50.102;14.434;2023-04-01T06:01:08;97792.06;;;9.29;70.67
76128;BME280;64873;50.102;14.434;2023-04-01T06:03:34;97806.00;;;9.53;69.88
76128;BME280;64873;50.102;14.434;2023-04-01T06:06:00;97790.75;;;9.70;69.44
76128;BME280;64873;50.102;14.434;2023-04-01T06:08:26;97806.28;;;9.73;69.26
76128;BME280;64873;50.102;14.434;2023-04-01T06:11:07;97809.69;;;9.69;69.55
76128;BME280;64873;50.102;14.434;2023-04-01T06:22:17;97811.19;;;10.25;67.11
76128;BME280;64873;50.102;14.434;2023-04-01T06:30:38;97815.22;;;10.06;67.07
76128;BME280;64873;50.102;14.434;2023-04-01T06:46:55;97831.22;;;10.50;65.52
76128;BME280;64873;50.102;14.434;2023-04-01T06:54:32;97805.91;;;10.08;65.73
76128;BME280;64873;50.102;14.434;2023-04-01T06:57:30;97831.53;;;10.31;65.86
76128;BME280;64873;50.102;14.434;2023-04-01T06:59:59;97835.84;;;10.32;66.71
76128;BME280;64873;50.102;14.434;2023-04-01T07:05:39;97829.06;;;10.25;68.08
76128;BME280;64873;50.102;14.434;2023-04-01T07:08:09;97825.44;;;10.14;67.58
76128;BME280;64873;50.102;14.434;2023-04-01T07:13:06;97825.94;;;10.11;67.33
76128;BME280;64873;50.102;14.434;2023-04-01T07:15:41;97816.09;;;10.33;66.50
76128;BME280;64873;50.102;14.434;2023-04-01T07:18:32;97825.34;;;10.26;67.07
76128;BME280;64873;50.102;14.434;2023-04-01T07:21:00;97835.25;;;10.52;66.07
76128;BME280;64873;50.102;14.434;2023-04-01T07:23:32;97836.66;;;10.60;65.48
76128;BME280;64873;50.102;14.434;2023-04-01T07:26:18;97832.31;;;10.54;65.56
76128;BME280;64873;50.102;14.434;2023-04-01T07:28:44;97822.66;;;10.75;64.78
76128;BME280;64873;50.102;14.434;2023-04-01T07:33:59;97830.06;;;10.67;66.07
76128;BME280;64873;50.102;14.434;2023-04-01T07:36:39;97837.75;;;10.64;66.14
76128;BME280;64873;50.102;14.434;2023-04-01T07:41:42;97841.59;;;10.73;65.45
76128;BME280;64873;50.102;14.434;2023-04-01T07:51:47;97844.31;;;10.78;65.05
76128;BME280;64873;50.102;14.434;2023-04-01T07:54:26;97844.19;;;10.95;64.89
76128;BME280;64873;50.102;14.434;2023-04-01T08:05:53;97853.91;;;11.38;62.90
76128;BME280;64873;50.102;14.434;2023-04-01T08:12:04;97854.56;;;10.86;63.45
76128;BME280;64873;50.102;14.434;2023-04-01T08:20:25;97870.00;;;10.84;62.47
76128;BME280;64873;50.102;14.434;2023-04-01T08:22:58;97852.97;;;10.90;62.26
76128;BME280;64873;50.102;14.434;2023-04-01T08:25:28;97869.69;;;11.08;61.77
76128;BME280;64873;50.102;14.434;2023-04-01T08:28:01;97858.88;;;11.25;60.35
76128;BME280;64873;50.102;14.434;2023-04-01T08:30:46;97846.69;;;11.39;60.47
76128;BME280;64873;50.102;14.434;2023-04-01T08:33:29;97852.56;;;11.41;60.76
76128;BME280;64873;50.102;14.434;2023-04-01T08:36:06;97868.03;;;11.71;60.06
76128;BME280;64873;50.102;14.434;2023-04-01T08:38:39;97855.72;;;11.70;59.76
76128;BME280;64873;50.102;14.434;2023-04-01T08:44:29;97851.28;;;11.48;59.27
76128;BME280;64873;50.102;14.434;2023-04-01T08:47:31;97870.19;;;11.74;58.67
76128;BME280;64873;50.102;14.434;2023-04-01T08:50:22;97876.88;;;12.14;58.01
76128;BME280;64873;50.102;14.434;2023-04-01T09:04:14;97870.09;;;12.01;57.44
76128;BME280;64873;50.102;14.434;2023-04-01T09:22:50;97874.78;;;12.26;56.64
76128;BME280;64873;50.102;14.434;2023-04-01T09:31:26;97867.47;;;12.11;57.27
76128;BME280;64873;50.102;14.434;2023-04-01T09:36:45;97872.22;;;12.72;55.17
76128;BME280;64873;50.102;14.434;2023-04-01T09:43:14;97864.69;;;12.64;55.65
76128;BME280;64873;50.102;14.434;2023-04-01T09:51:26;97870.00;;;12.43;55.48
76128;BME280;64873;50.102;14.434;2023-04-01T09:54:04;97862.41;;;12.25;55.93
76128;BME280;64873;50.102;14.434;2023-04-01T09:57:08;97867.31;;;12.48;55.88
76128;BME280;64873;50.102;14.434;2023-04-01T10:10:25;97863.06;;;12.58;54.33
76128;BME280;64873;50.102;14.434;2023-04-01T10:16:16;97874.91;;;12.77;54.07
76128;BME280;64873;50.102;14.434;2023-04-01T10:19:23;97878.00;;;12.33;54.89
76128;BME280;64873;50.102;14.434;2023-04-01T10:53:32;97859.41;;;13.30;51.15
76128;BME280;64873;50.102;14.434;2023-04-01T11:04:24;97876.59;;;13.39;51.79
76128;BME280;64873;50.102;14.434;2023-04-01T11:10:18;97868.81;;;13.38;52.05
76128;BME280;64873;50.102;14.434;2023-04-01T11:13:14;97869.63;;;13.43;52.12
76128;BME280;64873;50.102;14.434;2023-04-01T11:18:49;97876.03;;;12.91;52.75
76128;BME280;64873;50.102;14.434;2023-04-01T11:29:45;97867.47;;;13.45;52.90
76128;BME280;64873;50.102;14.434;2023-04-01T11:40:54;97870.88;;;14.66;53.58
76128;BME280;64873;50.102;14.434;2023-04-01T11:43:37;97865.94;;;14.24;49.95
76128;BME280;64873;50.102;14.434;2023-04-01T11:46:25;97865.25;;;13.88;50.26
76128;BME280;64873;50.102;14.434;2023-04-01T12:08:08;97882.41;;;14.02;49.14
76128;BME280;64873;50.102;14.434;2023-04-01T12:10:49;97885.00;;;14.28;49.42
76128;BME280;64873;50.102;14.434;2023-04-01T12:21:27;97872.56;;;13.67;52.08
76128;BME280;64873;50.102;14.434;2023-04-01T12:41:09;97879.00;;;13.46;51.41
76128;BME280;64873;50.102;14.434;2023-04-01T12:46:32;97895.84;;;13.97;50.71
76128;BME280;64873;50.102;14.434;2023-04-01T13:17:00;97891.19;;;14.23;49.42
76128;BME280;64873;50.102;14.434;2023-04-01T13:19:31;97893.03;;;14.38;49.26
76128;BME280;64873;50.102;14.434;2023-04-01T13:22:28;97886.72;;;13.83;51.06
76128;BME280;64873;50.102;14.434;2023-04-01T13:27:40;97888.38;;;13.64;51.87
76128;BME280;64873;50.102;14.434;2023-04-01T13:35:23;97878.66;;;13.88;51.68
76128;BME280;64873;50.102;14.434;2023-04-01T13:38:08;97874.09;;;13.99;51.33
76128;BME280;64873;50.102;14.434;2023-04-01T13:43:35;97881.25;;;14.24;50.24
76128;BME280;64873;50.102;14.434;2023-04-01T13:51:16;97875.34;;;14.22;50.28
76128;BME280;64873;50.102;14.434;2023-04-01T13:54:09;97879.25;;;13.75;51.56
76128;BME280;64873;50.102;14.434;2023-04-01T14:02:56;97888.63;;;13.87;51.36
76128;BME280;64873;50.102;14.434;2023-04-01T14:12:01;97874.38;;;13.92;51.06
76128;BME280;64873;50.102;14.434;2023-04-01T14:18:06;97886.44;;;14.00;50.83
76128;BME280;64873;50.102;14.434;2023-04-01T14:20:48;97872.41;;;14.18;51.37
76128;BME280;64873;50.102;14.434;2023-04-01T14:28:51;97876.84;;;13.73;51.79
76128;BME280;64873;50.102;14.434;2023-04-01T14:31:36;97890.00;;;13.59;52.11
76128;BME280;64873;50.102;14.434;2023-04-01T14:39:55;97900.22;;;13.37;55.13
76128;BME280;64873;50.102;14.434;2023-04-01T14:50:27;97904.50;;;13.74;53.69
76128;BME280;64873;50.102;14.434;2023-04-01T14:55:48;97914.13;;;13.19;55.44
76128;BME280;64873;50.102;14.434;2023-04-01T14:58:17;97911.94;;;12.95;56.06
76128;BME280;64873;50.102;14.434;2023-04-01T15:12:33;97910.84;;;12.86;56.05
76128;BME280;64873;50.102;14.434;2023-04-01T15:15:20;97917.19;;;12.60;56.31
76128;BME280;64873;50.102;14.434;2023-04-01T15:21:07;97928.66;;;12.40;57.27
76128;BME280;64873;50.102;14.434;2023-04-01T15:37:53;97929.25;;;12.52;56.01
76128;BME280;64873;50.102;14.434;2023-04-01T15:40:27;97929.94;;;12.27;56.55
76128;BME280;64873;50.102;14.434;2023-04-01T15:45:36;97941.13;;;12.14;57.53
76128;BME280;64873;50.102;14.434;2023-04-01T16:02:22;97968.00;;;12.34;58.62
76128;BME280;64873;50.102;14.434;2023-04-01T16:04:59;97957.84;;;12.36;58.98
76128;BME280;64873;50.102;14.434;2023-04-01T16:24:12;97958.13;;;11.92;59.33
76128;BME280;64873;50.102;14.434;2023-04-01T16:26:55;97970.97;;;11.95;59.45
76128;BME280;64873;50.102;14.434;2023-04-01T16:32:21;97968.34;;;12.00;59.49
76128;BME280;64873;50.102;14.434;2023-04-01T16:35:01;97965.59;;;11.85;59.72
76128;BME280;64873;50.102;14.434;2023-04-01T16:37:38;97974.56;;;11.74;59.95
76128;BME280;64873;50.102;14.434;2023-04-01T16:43:10;97979.34;;;11.72;59.96
76128;BME280;64873;50.102;14.434;2023-04-01T16:45:41;97991.47;;;11.80;59.33
76128;BME280;64873;50.102;14.434;2023-04-01T16:55:50;97989.53;;;11.43;60.56
76128;BME280;64873;50.102;14.434;2023-04-01T16:58:56;97998.50;;;11.59;60.30
76128;BME280;64873;50.102;14.434;2023-04-01T17:01:12;98009.16;;;11.54;60.61
76128;BME280;64873;50.102;14.434;2023-04-01T17:03:40;98013.59;;;11.38;61.39
76128;BME280;64873;50.102;14.434;2023-04-01T17:17:01;98029.28;;;11.07;63.25
76128;BME280;64873;50.102;14.434;2023-04-01T17:23:09;98036.97;;;10.99;63.78
76128;BME280;64873;50.102;14.434;2023-04-01T17:28:36;98041.38;;;10.88;64.47
76128;BME280;64873;50.102;14.434;2023-04-01T17:31:10;98050.19;;;10.88;64.59
76128;BME280;64873;50.102;14.434;2023-04-01T17:36:40;98050.69;;;10.85;64.79
76128;BME280;64873;50.102;14.434;2023-04-01T17:42:14;98059.75;;;10.84;65.07
76128;BME280;64873;50.102;14.434;2023-04-01T17:45:02;98064.47;;;10.77;65.56
76128;BME280;64873;50.102;14.434;2023-04-01T17:47:47;98062.78;;;10.71;65.99
76128;BME280;64873;50.102;14.434;2023-04-01T17:50:30;98073.75;;;10.91;65.73
76128;BME280;64873;50.102;14.434;2023-04-01T17:56:17;98065.16;;;10.67;66.44
76128;BME280;64873;50.102;14.434;2023-04-01T17:58:59;98074.31;;;10.55;67.03
76128;BME280;64873;50.102;14.434;2023-04-01T18:04:04;98075.69;;;10.74;66.80
76128;BME280;64873;50.102;14.434;2023-04-01T18:20:28;98110.59;;;10.67;68.18
76128;BME280;64873;50.102;14.434;2023-04-01T18:23:00;98099.06;;;10.67;68.12
76128;BME280;64873;50.102;14.434;2023-04-01T18:25:37;98097.25;;;10.51;68.35
76128;BME280;64873;50.102;14.434;2023-04-01T18:30:53;98108.81;;;10.56;68.31
76128;BME280;64873;50.102;14.434;2023-04-01T18:33:24;98114.97;;;10.57;67.72
76128;BME280;64873;50.102;14.434;2023-04-01T18:36:02;98122.41;;;10.55;67.62
76128;BME280;64873;50.102;14.434;2023-04-01T18:38:44;98119.59;;;10.45;67.64
76128;BME280;64873;50.102;14.434;2023-04-01T18:41:28;98122.00;;;10.63;67.27
76128;BME280;64873;50.102;14.434;2023-04-01T18:49:21;98136.75;;;10.49;68.23
76128;BME280;64873;50.102;14.434;2023-04-01T18:51:55;98144.44;;;10.62;67.62
76128;BME280;64873;50.102;14.434;2023-04-01T18:57:18;98152.28;;;10.52;67.71
76128;BME280;64873;50.102;14.434;2023-04-01T18:59:55;98154.69;;;10.70;67.63
76128;BME280;64873;50.102;14.434;2023-04-01T19:02:41;98158.19;;;10.54;68.49
76128;BME280;64873;50.102;14.434;2023-04-01T19:05:19;98150.69;;;10.51;68.43
76128;BME280;64873;50.102;14.434;2023-04-01T19:15:21;98163.22;;;10.33;69.53
76128;BME280;64873;50.102;14.434;2023-04-01T19:23:15;98157.25;;;10.26;70.14
76128;BME280;64873;50.102;14.434;2023-04-01T19:25:55;98168.72;;;10.27;70.73
76128;BME280;64873;50.102;14.434;2023-04-01T19:28:45;98167.22;;;10.19;70.92
76128;BME280;64873;50.102;14.434;2023-04-01T19:36:49;98173.66;;;10.06;71.85
76128;BME280;64873;50.102;14.434;2023-04-01T19:42:28;98173.13;;;10.21;71.59
76128;BME280;64873;50.102;14.434;2023-04-01T19:45:04;98180.00;;;10.17;71.77
76128;BME280;64873;50.102;14.434;2023-04-01T19:57:50;98191.00;;;10.04;72.12
76128;BME280;64873;50.102;14.434;2023-04-01T20:00:45;98194.13;;;10.01;72.43
76128;BME280;64873;50.102;14.434;2023-04-01T20:06:02;98194.81;;;9.79;72.89
76128;BME280;64873;50.102;14.434;2023-04-01T20:11:30;98200.38;;;10.06;72.47
76128;BME280;64873;50.102;14.434;2023-04-01T20:20:03;98207.91;;;10.09;72.92
76128;BME280;64873;50.102;14.434;2023-04-01T20:25:46;98210.19;;;9.89;73.71
76128;BME280;64873;50.102;14.434;2023-04-01T20:28:22;98213.28;;;9.98;73.56
76128;BME280;64873;50.102;14.434;2023-04-01T20:33:40;98212.25;;;9.99;73.46
76128;BME280;64873;50.102;14.434;2023-04-01T20:44:26;98212.78;;;9.72;73.67
76128;BME280;64873;50.102;14.434;2023-04-01T20:53:01;98220.13;;;9.65;74.74
76128;BME280;64873;50.102;14.434;2023-04-01T20:55:51;98223.47;;;9.72;74.48
76128;BME280;64873;50.102;14.434;2023-04-01T21:01:25;98225.16;;;9.61;74.85
76128;BME280;64873;50.102;14.434;2023-04-01T21:04:19;98232.91;;;9.63;74.89
76128;BME280;64873;50.102;14.434;2023-04-01T21:09:30;98236.63;;;9.62;75.17
76128;BME280;64873;50.102;14.434;2023-04-01T21:15:11;98229.31;;;9.57;74.88
76128;BME280;64873;50.102;14.434;2023-04-01T21:17:58;98220.75;;;9.44;75.40
76128;BME280;64873;50.102;14.434;2023-04-01T21:37:22;98247.63;;;9.54;75.50
76128;BME280;64873;50.102;14.434;2023-04-01T21:42:32;98255.19;;;9.57;75.46
76128;BME280;64873;50.102;14.434;2023-04-01T21:45:09;98239.59;;;9.66;75.07
76128;BME280;64873;50.102;14.434;2023-04-01T21:53:46;98261.66;;;9.61;75.02
76128;BME280;64873;50.102;14.434;2023-04-01T21:56:47;98256.31;;;9.61;75.09
76128;BME280;64873;50.102;14.434;2023-04-01T22:00:13;98260.97;;;9.54;75.02
76128;BME280;64873;50.102;14.434;2023-04-01T22:03:03;98262.72;;;9.48;75.12
76128;BME280;64873;50.102;14.434;2023-04-01T22:08:49;98270.69;;;9.60;74.96
76128;BME280;64873;50.102;14.434;2023-04-01T22:14:25;98258.69;;;9.34;75.68
76128;BME280;64873;50.102;14.434;2023-04-01T22:17:13;98262.53;;;9.38;76.02
76128;BME280;64873;50.102;14.434;2023-04-01T22:22:30;98275.13;;;9.43;76.34
76128;BME280;64873;50.102;14.434;2023-04-01T22:27:49;98277.09;;;9.59;75.48
76128;BME280;64873;50.102;14.434;2023-04-01T22:30:22;98282.31;;;9.54;75.07
76128;BME280;64873;50.102;14.434;2023-04-01T22:32:51;98272.34;;;9.49;74.93
76128;BME280;64873;50.102;14.434;2023-04-01T22:41:05;98272.38;;;9.14;76.42
76128;BME280;64873;50.102;14.434;2023-04-01T22:43:41;98282.81;;;9.27;76.60
76128;BME280;64873;50.102;14.434;2023-04-01T22:48:49;98279.91;;;9.29;76.51
76128;BME280;64873;50.102;14.434;2023-04-01T22:51:24;98288.34;;;9.49;75.71
76128;BME280;64873;50.102;14.434;2023-04-01T22:54:31;98288.00;;;9.57;75.68
76128;BME280;64873;50.102;14.434;2023-04-01T22:56:57;98285.44;;;9.63;74.84
76128;BME280;64873;50.102;14.434;2023-04-01T23:02:25;98281.84;;;9.57;74.83
76128;BME280;64873;50.102;14.434;2023-04-01T23:04:56;98287.06;;;9.52;75.18
76128;BME280;64873;50.102;14.434;2023-04-01T23:07:37;98290.31;;;9.42;75.54
76128;BME280;64873;50.102;14.434;2023-04-01T23:13:02;98284.06;;;9.48;75.61
76128;BME280;64873;50.102;14.434;2023-04-01T23:15:29;98285.78;;;9.43;75.39
76128;BME280;64873;50.102;14.434;2023-04-01T23:26:56;98308.38;;;9.75;74.86
76128;BME280;64873;50.102;14.434;2023-04-01T23:29:25;98316.34;;;9.87;74.47
76128;BME280;64873;50.102;14.434;2023-04-01T23:34:32;98316.28;;;9.58;75.74